^^
Saratoga-Weather Station Historical Data
Daily Summary for July 14, 2020 Units:  Both    English   Metric
Daily Weekly Monthly Yearly Custom
  High: Low: Average:
Temperature: 90 °F /  32.2 °C 53.6 °F /  12 °C 69.6 °F /  20.9 °C
Dew Point: 60.8 °F /  16 °C 45 °F /  7.2 °C 53.2 °F /  11.8 °C
Humidity: 79% 34% 59%
Wind Speed: 4.9mph /  7.9km/h - 0.5mph /  0.8km/h
Wind Gust: 8mph /  12.9km/h - -
Wind- - ESE
Pressure: 30.2 in /  1024.0 hPa 30.1 in /  1019.6 hPa -
Precipitation: 0 in /  0.0 mm    
Historical Graphs
 
 
Tabular Data for July 14, 2020
Time Temperature Dew Point Pressure Wind Wind Speed Wind Gust Humidity Rainfall Rate (Hourly) solar
00:03 59.2 °F /  15.1 °C 45.3 °F /  7.4 °C 30.2in /  1024.0hPa Calm     60% 0in /  0.0mm 0 W/m2
00:08 58.8 °F /  14.9 °C 45 °F /  7.2 °C 30.2in /  1024.0hPa Calm     60% 0in /  0.0mm 0 W/m2
00:14 59 °F /  15 °C 45.1 °F /  7.3 °C 30.2in /  1024.0hPa Calm     60% 0in /  0.0mm 0 W/m2
00:19 58.8 °F /  14.9 °C 45 °F /  7.2 °C 30.2in /  1024.0hPa Calm     60% 0in /  0.0mm 0 W/m2
00:24 58.8 °F /  14.9 °C 45.3 °F /  7.4 °C 30.2in /  1024.0hPa Calm     61% 0in /  0.0mm 0 W/m2
00:29 58.8 °F /  14.9 °C 45.3 °F /  7.4 °C 30.2in /  1024.0hPa Calm     61% 0in /  0.0mm 0 W/m2
00:34 58.8 °F /  14.9 °C 45.3 °F /  7.4 °C 30.2in /  1024.0hPa Calm     61% 0in /  0.0mm 0 W/m2
00:39 58.6 °F /  14.8 °C 46 °F /  7.8 °C 30.2in /  1024.0hPa Calm     63% 0in /  0.0mm 0 W/m2
00:44 58.6 °F /  14.8 °C 46 °F /  7.8 °C 30.2in /  1024.0hPa Calm     63% 0in /  0.0mm 0 W/m2
00:49 58.5 °F /  14.7 °C 45.5 °F /  7.5 °C 30.2in /  1024.0hPa Calm     62% 0in /  0.0mm 0 W/m2
00:54 58.5 °F /  14.7 °C 45.9 °F /  7.7 °C 30.2in /  1024.0hPa Calm     63% 0in /  0.0mm 0 W/m2
00:59 58.3 °F /  14.6 °C 45.7 °F /  7.6 °C 30.2in /  1024.0hPa Calm     63% 0in /  0.0mm 0 W/m2
01:04 57.9 °F /  14.4 °C 45.3 °F /  7.4 °C 30.2in /  1024.0hPa Calm     63% 0in /  0.0mm 0 W/m2
01:09 57.7 °F /  14.3 °C 45.7 °F /  7.6 °C 30.2in /  1024.0hPa Calm     64% 0in /  0.0mm 0 W/m2
01:14 57.7 °F /  14.3 °C 46 °F /  7.8 °C 30.2in /  1024.0hPa Calm     65% 0in /  0.0mm 0 W/m2
01:19 57.6 °F /  14.2 °C 45.9 °F /  7.7 °C 30.2in /  1024.0hPa Calm     65% 0in /  0.0mm 0 W/m2
01:24 57.4 °F /  14.1 °C 45.7 °F /  7.6 °C 30.2in /  1024.0hPa Calm     65% 0in /  0.0mm 0 W/m2
01:29 57.2 °F /  14 °C 45.5 °F /  7.5 °C 30.2in /  1024.0hPa Calm     65% 0in /  0.0mm 0 W/m2
01:34 57.2 °F /  14 °C 45.9 °F /  7.7 °C 30.2in /  1024.0hPa Calm     66% 0in /  0.0mm 0 W/m2
01:39 57 °F /  13.9 °C 46.2 °F /  7.9 °C 30.2in /  1024.0hPa Calm     67% 0in /  0.0mm 0 W/m2
01:44 57 °F /  13.9 °C 46.2 °F /  7.9 °C 30.2in /  1024.0hPa Calm     67% 0in /  0.0mm 0 W/m2
01:49 56.8 °F /  13.8 °C 46 °F /  7.8 °C 30.2in /  1024.0hPa Calm     67% 0in /  0.0mm 0 W/m2
01:54 56.8 °F /  13.8 °C 46 °F /  7.8 °C 30.2in /  1024.0hPa Calm     67% 0in /  0.0mm 0 W/m2
01:59 56.8 °F /  13.8 °C 46 °F /  7.8 °C 30.2in /  1024.0hPa Calm     67% 0in /  0.0mm 0 W/m2
02:04 56.7 °F /  13.7 °C 46.2 °F /  7.9 °C 30.2in /  1024.0hPa Calm     68% 0in /  0.0mm 0 W/m2
02:09 56.7 °F /  13.7 °C 46.2 °F /  7.9 °C 30.2in /  1024.0hPa Calm     68% 0in /  0.0mm 0 W/m2
02:14 56.7 °F /  13.7 °C 46.2 °F /  7.9 °C 30.2in /  1024.0hPa Calm     68% 0in /  0.0mm 0 W/m2
02:19 56.5 °F /  13.6 °C 46 °F /  7.8 °C 30.2in /  1024.0hPa Calm     68% 0in /  0.0mm 0 W/m2
02:24 56.5 °F /  13.6 °C 46.4 °F /  8 °C 30.2in /  1024.0hPa Calm     69% 0in /  0.0mm 0 W/m2
02:29 56.5 °F /  13.6 °C 46.4 °F /  8 °C 30.2in /  1024.0hPa Calm     69% 0in /  0.0mm 0 W/m2
02:34 56.3 °F /  13.5 °C 45.9 °F /  7.7 °C 30.2in /  1024.0hPa Calm     68% 0in /  0.0mm 0 W/m2
02:39 56.1 °F /  13.4 °C 46 °F /  7.8 °C 30.2in /  1023.7hPa Calm     69% 0in /  0.0mm 0 W/m2
02:44 55.9 °F /  13.3 °C 46.2 °F /  7.9 °C 30.2in /  1023.7hPa Calm     70% 0in /  0.0mm 0 W/m2
02:49 55.9 °F /  13.3 °C 46.2 °F /  7.9 °C 30.2in /  1023.7hPa Calm     70% 0in /  0.0mm 0 W/m2
02:54 55.8 °F /  13.2 °C 46.6 °F /  8.1 °C 30.2in /  1023.7hPa Calm     71% 0in /  0.0mm 0 W/m2
02:59 55.8 °F /  13.2 °C 46.6 °F /  8.1 °C 30.2in /  1023.7hPa Calm     71% 0in /  0.0mm 0 W/m2
03:04 55.8 °F /  13.2 °C 46.9 °F /  8.3 °C 30.2in /  1023.7hPa Calm     72% 0in /  0.0mm 0 W/m2
03:09 55.6 °F /  13.1 °C 46.4 °F /  8 °C 30.2in /  1023.7hPa Calm     71% 0in /  0.0mm 0 W/m2
03:14 55.6 °F /  13.1 °C 46.8 °F /  8.2 °C 30.2in /  1023.7hPa Calm     72% 0in /  0.0mm 0 W/m2
03:19 55.6 °F /  13.1 °C 47.1 °F /  8.4 °C 30.2in /  1023.7hPa Calm     73% 0in /  0.0mm 0 W/m2
03:24 55.6 °F /  13.1 °C 47.1 °F /  8.4 °C 30.2in /  1023.7hPa Calm     73% 0in /  0.0mm 0 W/m2
03:29 55.9 °F /  13.3 °C 47.1 °F /  8.4 °C 30.2in /  1023.7hPa Calm     72% 0in /  0.0mm 0 W/m2
03:34 55.9 °F /  13.3 °C 47.5 °F /  8.6 °C 30.2in /  1023.7hPa Calm     73% 0in /  0.0mm 0 W/m2
03:39 55.9 °F /  13.3 °C 47.5 °F /  8.6 °C 30.2in /  1023.7hPa Calm     73% 0in /  0.0mm 0 W/m2
03:44 55.9 °F /  13.3 °C 47.5 °F /  8.6 °C 30.2in /  1023.7hPa Calm     73% 0in /  0.0mm 0 W/m2
03:49 55.9 °F /  13.3 °C 47.1 °F /  8.4 °C 30.2in /  1023.7hPa Calm     72% 0in /  0.0mm 0 W/m2
03:54 55.9 °F /  13.3 °C 47.1 °F /  8.4 °C 30.2in /  1023.7hPa Calm     72% 0in /  0.0mm 0 W/m2
03:59 55.9 °F /  13.3 °C 47.1 °F /  8.4 °C 30.2in /  1023.7hPa Calm     72% 0in /  0.0mm 0 W/m2
04:04 55.8 °F /  13.2 °C 46.9 °F /  8.3 °C 30.2in /  1023.7hPa Calm     72% 0in /  0.0mm 0 W/m2
04:09 55.8 °F /  13.2 °C 46.9 °F /  8.3 °C 30.2in /  1023.7hPa Calm     72% 0in /  0.0mm 0 W/m2
04:14 55.6 °F /  13.1 °C 46.8 °F /  8.2 °C 30.2in /  1023.4hPa Calm     72% 0in /  0.0mm 0 W/m2
04:19 55.4 °F /  13 °C 46.6 °F /  8.1 °C 30.2in /  1023.7hPa Calm     72% 0in /  0.0mm 0 W/m2
04:24 55.2 °F /  12.9 °C 46.4 °F /  8 °C 30.2in /  1023.4hPa Calm     72% 0in /  0.0mm 0 W/m2
04:29 55.2 °F /  12.9 °C 46.8 °F /  8.2 °C 30.2in /  1023.7hPa Calm     73% 0in /  0.0mm 0 W/m2
04:34 55.2 °F /  12.9 °C 46.8 °F /  8.2 °C 30.2in /  1023.4hPa Calm     73% 0in /  0.0mm 0 W/m2
04:39 55.2 °F /  12.9 °C 46.8 °F /  8.2 °C 30.2in /  1023.4hPa Calm     73% 0in /  0.0mm 0 W/m2
04:44 55.2 °F /  12.9 °C 46.8 °F /  8.2 °C 30.2in /  1023.4hPa Calm     73% 0in /  0.0mm 0 W/m2
04:50 55.4 °F /  13 °C 47.3 °F /  8.5 °C 30.2in /  1023.4hPa Calm     74% 0in /  0.0mm 0 W/m2
04:55 55.4 °F /  13 °C 46.9 °F /  8.3 °C 30.2in /  1023.4hPa Calm     73% 0in /  0.0mm 0 W/m2
05:00 55.4 °F /  13 °C 46.9 °F /  8.3 °C 30.2in /  1023.4hPa Calm     73% 0in /  0.0mm 0 W/m2
05:05 55.2 °F /  12.9 °C 46.8 °F /  8.2 °C 30.2in /  1023.4hPa Calm     73% 0in /  0.0mm 0 W/m2
05:10 55 °F /  12.8 °C 46.9 °F /  8.3 °C 30.2in /  1023.4hPa Calm     74% 0in /  0.0mm 0 W/m2
05:15 55 °F /  12.8 °C 46.9 °F /  8.3 °C 30.2in /  1023.4hPa Calm     74% 0in /  0.0mm 0 W/m2
05:20 55 °F /  12.8 °C 46.9 °F /  8.3 °C 30.2in /  1023.4hPa Calm     74% 0in /  0.0mm 0 W/m2
05:25 55 °F /  12.8 °C 47.3 °F /  8.5 °C 30.2in /  1023.4hPa Calm     75% 0in /  0.0mm 0 W/m2
05:30 55 °F /  12.8 °C 47.3 °F /  8.5 °C 30.2in /  1023.7hPa Calm     75% 0in /  0.0mm 0 W/m2
05:35 54.9 °F /  12.7 °C 47.1 °F /  8.4 °C 30.2in /  1023.7hPa Calm     75% 0in /  0.0mm 0 W/m2
05:40 54.7 °F /  12.6 °C 46.9 °F /  8.3 °C 30.2in /  1023.7hPa Calm     75% 0in /  0.0mm 0 W/m2
05:45 54.5 °F /  12.5 °C 47.1 °F /  8.4 °C 30.2in /  1023.4hPa Calm     76% 0in /  0.0mm 0 W/m2
05:50 54.3 °F /  12.4 °C 46.9 °F /  8.3 °C 30.2in /  1023.7hPa Calm     76% 0in /  0.0mm 0 W/m2
05:55 54.3 °F /  12.4 °C 46.9 °F /  8.3 °C 30.2in /  1023.7hPa Calm     76% 0in /  0.0mm 0 W/m2
06:00 54.1 °F /  12.3 °C 46.8 °F /  8.2 °C 30.2in /  1023.4hPa Calm     76% 0in /  0.0mm 0 W/m2
06:05 54.3 °F /  12.4 °C 46.9 °F /  8.3 °C 30.2in /  1023.4hPa Calm     76% 0in /  0.0mm 0 W/m2
06:11 54.3 °F /  12.4 °C 46.9 °F /  8.3 °C 30.2in /  1023.4hPa Calm     76% 0in /  0.0mm 0 W/m2
06:16 54.3 °F /  12.4 °C 46.9 °F /  8.3 °C 30.2in /  1023.4hPa Calm     76% 0in /  0.0mm 0 W/m2
06:21 54.1 °F /  12.3 °C 46.8 °F /  8.2 °C 30.2in /  1023.4hPa Calm     76% 0in /  0.0mm 0 W/m2
06:26 54.1 °F /  12.3 °C 46.8 °F /  8.2 °C 30.2in /  1023.4hPa Calm     76% 0in /  0.0mm 0 W/m2
06:31 54.1 °F /  12.3 °C 46.8 °F /  8.2 °C 30.2in /  1023.4hPa Calm     76% 0in /  0.0mm 0 W/m2
06:36 54.1 °F /  12.3 °C 47.1 °F /  8.4 °C 30.2in /  1023.4hPa Calm     77% 0in /  0.0mm 0 W/m2
06:41 54 °F /  12.2 °C 46.9 °F /  8.3 °C 30.2in /  1023.4hPa Calm     77% 0in /  0.0mm 0 W/m2
06:46 53.8 °F /  12.1 °C 46.8 °F /  8.2 °C 30.2in /  1023.4hPa Calm     77% 0in /  0.0mm 0 W/m2
06:51 53.8 °F /  12.1 °C 47.1 °F /  8.4 °C 30.2in /  1023.4hPa Calm     78% 0in /  0.0mm 0 W/m2
06:56 54 °F /  12.2 °C 47.3 °F /  8.5 °C 30.2in /  1023.4hPa Calm     78% 0in /  0.0mm 0 W/m2
07:01 54 °F /  12.2 °C 47.7 °F /  8.7 °C 30.2in /  1023.4hPa Calm     79% 0in /  0.0mm 0 W/m2
07:06 54 °F /  12.2 °C 47.7 °F /  8.7 °C 30.2in /  1023.4hPa Calm     79% 0in /  0.0mm 0 W/m2
07:11 53.8 °F /  12.1 °C 47.1 °F /  8.4 °C 30.2in /  1023.4hPa Calm     78% 0in /  0.0mm 0 W/m2
07:16 53.8 °F /  12.1 °C 47.5 °F /  8.6 °C 30.2in /  1023.4hPa Calm     79% 0in /  0.0mm 5 W/m2
07:21 53.6 °F /  12 °C 47.3 °F /  8.5 °C 30.2in /  1023.4hPa Calm     79% 0in /  0.0mm 7 W/m2
07:26 53.6 °F /  12 °C 47.3 °F /  8.5 °C 30.2in /  1023.4hPa Calm     79% 0in /  0.0mm 9 W/m2
07:31 53.6 °F /  12 °C 47.3 °F /  8.5 °C 30.2in /  1023.7hPa Calm     79% 0in /  0.0mm 14 W/m2
07:36 53.6 °F /  12 °C 47.3 °F /  8.5 °C 30.2in /  1023.7hPa Calm     79% 0in /  0.0mm 16 W/m2
07:41 53.8 °F /  12.1 °C 47.5 °F /  8.6 °C 30.2in /  1023.7hPa Calm     79% 0in /  0.0mm 19 W/m2
07:46 53.8 °F /  12.1 °C 47.5 °F /  8.6 °C 30.2in /  1023.7hPa Calm     79% 0in /  0.0mm 23 W/m2
07:51 54 °F /  12.2 °C 47.7 °F /  8.7 °C 30.2in /  1023.7hPa Calm     79% 0in /  0.0mm 25 W/m2
07:56 54 °F /  12.2 °C 47.7 °F /  8.7 °C 30.2in /  1023.7hPa Calm     79% 0in /  0.0mm 28 W/m2
08:01 54 °F /  12.2 °C 47.7 °F /  8.7 °C 30.2in /  1023.7hPa Calm     79% 0in /  0.0mm 33 W/m2
08:06 54.1 °F /  12.3 °C 47.8 °F /  8.8 °C 30.2in /  1023.7hPa Calm     79% 0in /  0.0mm 37 W/m2
08:11 54.1 °F /  12.3 °C 47.8 °F /  8.8 °C 30.2in /  1023.7hPa Calm     79% 0in /  0.0mm 40 W/m2
08:16 54.3 °F /  12.4 °C 48 °F /  8.9 °C 30.2in /  1023.7hPa Calm     79% 0in /  0.0mm 42 W/m2
08:21 54.7 °F /  12.6 °C 48.4 °F /  9.1 °C 30.2in /  1023.7hPa Calm     79% 0in /  0.0mm 51 W/m2
08:26 55 °F /  12.8 °C 48.4 °F /  9.1 °C 30.2in /  1023.7hPa Calm     78% 0in /  0.0mm 88 W/m2
08:31 55.6 °F /  13.1 °C 48.9 °F /  9.4 °C 30.2in /  1023.7hPa Calm     78% 0in /  0.0mm 109 W/m2
08:37 55.9 °F /  13.3 °C 48.9 °F /  9.4 °C 30.2in /  1023.7hPa Calm     77% 0in /  0.0mm 120 W/m2
08:42 56.5 °F /  13.6 °C 49.3 °F /  9.6 °C 30.2in /  1023.7hPa Calm     77% 0in /  0.0mm 134 W/m2
08:47 56.8 °F /  13.8 °C 49.3 °F /  9.6 °C 30.2in /  1023.7hPa Calm     76% 0in /  0.0mm 135 W/m2
08:52 57.4 °F /  14.1 °C 49.5 °F /  9.7 °C 30.2in /  1023.7hPa Calm     75% 0in /  0.0mm 53 W/m2
08:57 57.7 °F /  14.3 °C 49.8 °F /  9.9 °C 30.2in /  1023.7hPa Calm     75% 0in /  0.0mm 100 W/m2
09:02 58.5 °F /  14.7 °C 50.5 °F /  10.3 °C 30.2in /  1023.7hPa Calm     75% 0in /  0.0mm 188 W/m2
09:07 59 °F /  15 °C 51.1 °F /  10.6 °C 30.2in /  1023.7hPa Calm     75% 0in /  0.0mm 199 W/m2
09:12 59.7 °F /  15.4 °C 51.4 °F /  10.8 °C 30.2in /  1023.7hPa Calm     74% 0in /  0.0mm 213 W/m2
09:17 60.4 °F /  15.8 °C 51.8 °F /  11 °C 30.2in /  1023.7hPa Calm     73% 0in /  0.0mm 158 W/m2
09:22 61.2 °F /  16.2 °C 52 °F /  11.1 °C 30.2in /  1023.7hPa Calm     72% 0in /  0.0mm 69 W/m2
09:27 61.9 °F /  16.6 °C 52.3 °F /  11.3 °C 30.2in /  1024.0hPa Calm     71% 0in /  0.0mm 54 W/m2
09:32 62.8 °F /  17.1 °C 52.9 °F /  11.6 °C 30.2in /  1023.7hPa Calm     70% 0in /  0.0mm 56 W/m2
09:37 63.5 °F /  17.5 °C 52.3 °F /  11.3 °C 30.2in /  1023.7hPa Calm     67% 0in /  0.0mm 58 W/m2
09:42 64.4 °F /  18 °C 52.9 °F /  11.6 °C 30.2in /  1024.0hPa Calm     66% 0in /  0.0mm 58 W/m2
09:47 64.9 °F /  18.3 °C 52.9 °F /  11.6 °C 30.2in /  1024.0hPa Calm     65% 0in /  0.0mm 60 W/m2
09:52 65.7 °F /  18.7 °C 53.2 °F /  11.8 °C 30.2in /  1024.0hPa Calm   1mph /  1.6km/h 64% 0in /  0.0mm 60 W/m2
09:57 66.4 °F /  19.1 °C 53.4 °F /  11.9 °C 30.2in /  1024.0hPa Calm   1mph /  1.6km/h 63% 0in /  0.0mm 62 W/m2
10:02 66.9 °F /  19.4 °C 53.4 °F /  11.9 °C 30.2in /  1024.0hPa Calm     62% 0in /  0.0mm 62 W/m2
10:07 67.6 °F /  19.8 °C 54.1 °F /  12.3 °C 30.2in /  1024.0hPa ESE 2mph /  3.2km/h 3mph /  4.8km/h 62% 0in /  0.0mm 63 W/m2
10:12 68.5 °F /  20.3 °C 54.1 °F /  12.3 °C 30.2in /  1024.0hPa ENE 0.9mph /  1.4km/h 1mph /  1.6km/h 60% 0in /  0.0mm 63 W/m2
10:17 69.3 °F /  20.7 °C 54.3 °F /  12.4 °C 30.2in /  1024.0hPa ENE 0.9mph /  1.4km/h 3mph /  4.8km/h 59% 0in /  0.0mm 65 W/m2
10:22 69.4 °F /  20.8 °C 54.5 °F /  12.5 °C 30.2in /  1024.0hPa Calm   2mph /  3.2km/h 59% 0in /  0.0mm 65 W/m2
10:27 69.8 °F /  21 °C 54.9 °F /  12.7 °C 30.2in /  1024.0hPa Calm   3mph /  4.8km/h 59% 0in /  0.0mm 67 W/m2
10:32 70.2 °F /  21.2 °C 55.2 °F /  12.9 °C 30.2in /  1024.0hPa East 2.9mph /  4.7km/h 4mph /  6.4km/h 59% 0in /  0.0mm 67 W/m2
10:37 70.3 °F /  21.3 °C 54.3 °F /  12.4 °C 30.2in /  1024.0hPa Calm   2mph /  3.2km/h 57% 0in /  0.0mm 67 W/m2
10:42 70.5 °F /  21.4 °C 55 °F /  12.8 °C 30.2in /  1024.0hPa East 0.9mph /  1.4km/h 4mph /  6.4km/h 58% 0in /  0.0mm 69 W/m2
10:47 70.7 °F /  21.5 °C 54.7 °F /  12.6 °C 30.2in /  1024.0hPa NE 2.9mph /  4.7km/h 4mph /  6.4km/h 57% 0in /  0.0mm 69 W/m2
10:52 70.9 °F /  21.6 °C 54.9 °F /  12.7 °C 30.2in /  1024.0hPa Calm   1mph /  1.6km/h 57% 0in /  0.0mm 70 W/m2
10:57 70.9 °F /  21.6 °C 55.4 °F /  13 °C 30.2in /  1023.7hPa Calm   4mph /  6.4km/h 58% 0in /  0.0mm 72 W/m2
11:02 71.2 °F /  21.8 °C 56.1 °F /  13.4 °C 30.2in /  1024.0hPa Calm     59% 0in /  0.0mm 74 W/m2
11:07 71.6 °F /  22 °C 56.5 °F /  13.6 °C 30.2in /  1023.7hPa NNE 0.9mph /  1.4km/h 1mph /  1.6km/h 59% 0in /  0.0mm 76 W/m2
11:12 72.1 °F /  22.3 °C 56.1 °F /  13.4 °C 30.2in /  1023.7hPa NE 2.9mph /  4.7km/h 3mph /  4.8km/h 57% 0in /  0.0mm 77 W/m2
11:17 72.7 °F /  22.6 °C 57 °F /  13.9 °C 30.2in /  1023.7hPa Calm   1mph /  1.6km/h 58% 0in /  0.0mm 79 W/m2
11:22 72.9 °F /  22.7 °C 56.3 °F /  13.5 °C 30.2in /  1023.7hPa ENE 2.9mph /  4.7km/h 3mph /  4.8km/h 56% 0in /  0.0mm 81 W/m2
11:27 73 °F /  22.8 °C 56.5 °F /  13.6 °C 30.2in /  1023.7hPa NNW 2mph /  3.2km/h 2mph /  3.2km/h 56% 0in /  0.0mm 83 W/m2
11:32 73 °F /  22.8 °C 56.5 °F /  13.6 °C 30.2in /  1023.7hPa Calm   1mph /  1.6km/h 56% 0in /  0.0mm 84 W/m2
11:37 73.6 °F /  23.1 °C 56.8 °F /  13.8 °C 30.2in /  1023.7hPa East 0.9mph /  1.4km/h 1mph /  1.6km/h 56% 0in /  0.0mm 88 W/m2
11:42 74.1 °F /  23.4 °C 56.8 °F /  13.8 °C 30.2in /  1023.7hPa Calm   2mph /  3.2km/h 55% 0in /  0.0mm 311 W/m2
11:47 74.7 °F /  23.7 °C 57.4 °F /  14.1 °C 30.2in /  1023.4hPa Calm   3mph /  4.8km/h 55% 0in /  0.0mm 557 W/m2
11:52 75 °F /  23.9 °C 57.7 °F /  14.3 °C 30.2in /  1023.4hPa North 0.9mph /  1.4km/h 3mph /  4.8km/h 55% 0in /  0.0mm 527 W/m2
11:57 75.6 °F /  24.2 °C 57.7 °F /  14.3 °C 30.2in /  1023.4hPa Calm   2mph /  3.2km/h 54% 0in /  0.0mm 564 W/m2
12:02 75.7 °F /  24.3 °C 57.9 °F /  14.4 °C 30.2in /  1023.4hPa East 0.9mph /  1.4km/h 3mph /  4.8km/h 54% 0in /  0.0mm 578 W/m2
12:07 76.1 °F /  24.5 °C 57.7 °F /  14.3 °C 30.2in /  1023.4hPa Calm     53% 0in /  0.0mm 592 W/m2
12:12 77 °F /  25 °C 58.1 °F /  14.5 °C 30.2in /  1023.4hPa East 2mph /  3.2km/h 6mph /  9.7km/h 52% 0in /  0.0mm 598 W/m2
12:18 77.7 °F /  25.4 °C 58.1 °F /  14.5 °C 30.2in /  1023.4hPa SE 0.9mph /  1.4km/h 2mph /  3.2km/h 51% 0in /  0.0mm 606 W/m2
12:23 78.1 °F /  25.6 °C 58.5 °F /  14.7 °C 30.2in /  1023.4hPa Calm   2mph /  3.2km/h 51% 0in /  0.0mm 612 W/m2
12:28 78.3 °F /  25.7 °C 58.6 °F /  14.8 °C 30.2in /  1023.4hPa East 2mph /  3.2km/h 3mph /  4.8km/h 51% 0in /  0.0mm 621 W/m2
12:33 79 °F /  26.1 °C 59.4 °F /  15.2 °C 30.2in /  1023.4hPa Calm   2mph /  3.2km/h 51% 0in /  0.0mm 626 W/m2
12:38 79.9 °F /  26.6 °C 59 °F /  15 °C 30.2in /  1023.0hPa Calm   1mph /  1.6km/h 49% 0in /  0.0mm 635 W/m2
12:43 80.4 °F /  26.9 °C 60.1 °F /  15.6 °C 30.2in /  1023.0hPa ESE 2mph /  3.2km/h 2mph /  3.2km/h 50% 0in /  0.0mm 643 W/m2
12:48 81.1 °F /  27.3 °C 59.5 °F /  15.3 °C 30.2in /  1023.0hPa ENE 4mph /  6.4km/h 4mph /  6.4km/h 48% 0in /  0.0mm 645 W/m2
12:53 81.5 °F /  27.5 °C 59.9 °F /  15.5 °C 30.2in /  1023.0hPa ENE 2.9mph /  4.7km/h 3mph /  4.8km/h 48% 0in /  0.0mm 652 W/m2
12:58 81.9 °F /  27.7 °C 60.3 °F /  15.7 °C 30.2in /  1023.0hPa SSE 0.9mph /  1.4km/h 4mph /  6.4km/h 48% 0in /  0.0mm 656 W/m2
13:03 81.9 °F /  27.7 °C 60.3 °F /  15.7 °C 30.2in /  1023.0hPa East 2.9mph /  4.7km/h 6mph /  9.7km/h 48% 0in /  0.0mm 659 W/m2
13:08 82.2 °F /  27.9 °C 59.9 °F /  15.5 °C 30.2in /  1023.0hPa ESE 0.9mph /  1.4km/h 2mph /  3.2km/h 47% 0in /  0.0mm 657 W/m2
13:13 82.6 °F /  28.1 °C 60.3 °F /  15.7 °C 30.2in /  1023.0hPa Calm   6mph /  9.7km/h 47% 0in /  0.0mm 661 W/m2
13:18 82.8 °F /  28.2 °C 60.4 °F /  15.8 °C 30.2in /  1023.0hPa ESE 0.9mph /  1.4km/h 3mph /  4.8km/h 47% 0in /  0.0mm 663 W/m2
13:23 82.9 °F /  28.3 °C 60.1 °F /  15.6 °C 30.2in /  1023.0hPa Calm   6mph /  9.7km/h 46% 0in /  0.0mm 670 W/m2
13:28 83.1 °F /  28.4 °C 60.3 °F /  15.7 °C 30.2in /  1022.7hPa NNE 4mph /  6.4km/h 6mph /  9.7km/h 46% 0in /  0.0mm 670 W/m2
13:33 83.3 °F /  28.5 °C 60.4 °F /  15.8 °C 30.2in /  1022.7hPa SSE 0.9mph /  1.4km/h 3mph /  4.8km/h 46% 0in /  0.0mm 670 W/m2
13:38 83.7 °F /  28.7 °C 60.1 °F /  15.6 °C 30.2in /  1022.7hPa NE 2mph /  3.2km/h 6mph /  9.7km/h 45% 0in /  0.0mm 668 W/m2
13:43 83.8 °F /  28.8 °C 59.5 °F /  15.3 °C 30.2in /  1022.7hPa NE 4mph /  6.4km/h 5mph /  8km/h 44% 0in /  0.0mm 673 W/m2
13:48 84.2 °F /  29 °C 60.6 °F /  15.9 °C 30.2in /  1022.4hPa NE 0.9mph /  1.4km/h 2mph /  3.2km/h 45% 0in /  0.0mm 668 W/m2
13:53 84.6 °F /  29.2 °C 60.8 °F /  16 °C 30.2in /  1022.4hPa NNE 4mph /  6.4km/h 4mph /  6.4km/h 45% 0in /  0.0mm 670 W/m2
13:58 84.4 °F /  29.1 °C 60.1 °F /  15.6 °C 30.2in /  1022.4hPa East 0.9mph /  1.4km/h 4mph /  6.4km/h 44% 0in /  0.0mm 663 W/m2
14:03 84.7 °F /  29.3 °C 59.7 °F /  15.4 °C 30.2in /  1022.4hPa Calm   1mph /  1.6km/h 43% 0in /  0.0mm 661 W/m2
14:08 85.1 °F /  29.5 °C 59.4 °F /  15.2 °C 30.2in /  1022.4hPa East 4.9mph /  7.9km/h 5mph /  8km/h 42% 0in /  0.0mm 659 W/m2
14:13 85.5 °F /  29.7 °C 59.7 °F /  15.4 °C 30.2in /  1022.4hPa ESE 2mph /  3.2km/h 6mph /  9.7km/h 42% 0in /  0.0mm 661 W/m2
14:19 85.5 °F /  29.7 °C 59.7 °F /  15.4 °C 30.2in /  1022.0hPa East 2mph /  3.2km/h 3mph /  4.8km/h 42% 0in /  0.0mm 663 W/m2
14:24 85.8 °F /  29.9 °C 59.4 °F /  15.2 °C 30.2in /  1022.0hPa ESE 2.9mph /  4.7km/h 5mph /  8km/h 41% 0in /  0.0mm 661 W/m2
14:29 86.4 °F /  30.2 °C 58.5 °F /  14.7 °C 30.2in /  1022.0hPa SSW 2.9mph /  4.7km/h 4mph /  6.4km/h 39% 0in /  0.0mm 661 W/m2
14:34 86.4 °F /  30.2 °C 58.5 °F /  14.7 °C 30.2in /  1022.0hPa NE 4mph /  6.4km/h 4mph /  6.4km/h 39% 0in /  0.0mm 663 W/m2
14:39 86.5 °F /  30.3 °C 58.6 °F /  14.8 °C 30.2in /  1022.0hPa East 4mph /  6.4km/h 4mph /  6.4km/h 39% 0in /  0.0mm 659 W/m2
14:44 86.7 °F /  30.4 °C 58.1 °F /  14.5 °C 30.2in /  1022.0hPa NNE 0.9mph /  1.4km/h 2mph /  3.2km/h 38% 0in /  0.0mm 656 W/m2
14:49 87.3 °F /  30.7 °C 58.6 °F /  14.8 °C 30.2in /  1022.0hPa NE 2.9mph /  4.7km/h 5mph /  8km/h 38% 0in /  0.0mm 652 W/m2
14:54 87.4 °F /  30.8 °C 58.6 °F /  14.8 °C 30.2in /  1022.0hPa SSW 2mph /  3.2km/h 3mph /  4.8km/h 38% 0in /  0.0mm 631 W/m2
14:59 87.6 °F /  30.9 °C 57.4 °F /  14.1 °C 30.2in /  1021.7hPa ENE 2.9mph /  4.7km/h 8mph /  12.9km/h 36% 0in /  0.0mm 598 W/m2
15:04 87.6 °F /  30.9 °C 58.1 °F /  14.5 °C 30.2in /  1021.7hPa Calm   4mph /  6.4km/h 37% 0in /  0.0mm 594 W/m2
15:09 87.6 °F /  30.9 °C 57.4 °F /  14.1 °C 30.2in /  1021.7hPa East 0.9mph /  1.4km/h 8mph /  12.9km/h 36% 0in /  0.0mm 573 W/m2
15:14 87.6 °F /  30.9 °C 56.7 °F /  13.7 °C 30.2in /  1021.7hPa South 0.9mph /  1.4km/h 3mph /  4.8km/h 35% 0in /  0.0mm 585 W/m2
15:19 87.8 °F /  31 °C 56.7 °F /  13.7 °C 30.2in /  1021.7hPa Calm   6mph /  9.7km/h 35% 0in /  0.0mm 575 W/m2
15:24 88.2 °F /  31.2 °C 57 °F /  13.9 °C 30.2in /  1021.3hPa Calm   2mph /  3.2km/h 35% 0in /  0.0mm 575 W/m2
15:29 88.3 °F /  31.3 °C 58.8 °F /  14.9 °C 30.2in /  1021.3hPa East 0.9mph /  1.4km/h 4mph /  6.4km/h 37% 0in /  0.0mm 563 W/m2
15:34 88.5 °F /  31.4 °C 57.4 °F /  14.1 °C 30.2in /  1021.3hPa SE 0.9mph /  1.4km/h 4mph /  6.4km/h 35% 0in /  0.0mm 533 W/m2
15:39 88.5 °F /  31.4 °C 58.1 °F /  14.5 °C 30.2in /  1021.3hPa ENE 0.9mph /  1.4km/h 3mph /  4.8km/h 36% 0in /  0.0mm 513 W/m2
15:44 88.7 °F /  31.5 °C 58.3 °F /  14.6 °C 30.2in /  1021.3hPa Calm   1mph /  1.6km/h 36% 0in /  0.0mm 510 W/m2
15:49 88.9 °F /  31.6 °C 59.2 °F /  15.1 °C 30.2in /  1021.3hPa NE 2.9mph /  4.7km/h 3mph /  4.8km/h 37% 0in /  0.0mm 515 W/m2
15:54 88.9 °F /  31.6 °C 58.5 °F /  14.7 °C 30.2in /  1021.3hPa NE 2mph /  3.2km/h 3mph /  4.8km/h 36% 0in /  0.0mm 540 W/m2
15:59 88.9 °F /  31.6 °C 58.5 °F /  14.7 °C 30.2in /  1021.3hPa East 2.9mph /  4.7km/h 3mph /  4.8km/h 36% 0in /  0.0mm 533 W/m2
16:04 89.1 °F /  31.7 °C 59.4 °F /  15.2 °C 30.2in /  1021.3hPa NE 2mph /  3.2km/h 2mph /  3.2km/h 37% 0in /  0.0mm 503 W/m2
16:09 89.2 °F /  31.8 °C 58.8 °F /  14.9 °C 30.2in /  1021.0hPa ESE 0.9mph /  1.4km/h 1mph /  1.6km/h 36% 0in /  0.0mm 480 W/m2
16:14 89.1 °F /  31.7 °C 58.6 °F /  14.8 °C 30.2in /  1021.0hPa East 0.9mph /  1.4km/h 2mph /  3.2km/h 36% 0in /  0.0mm 466 W/m2
16:19 89.2 °F /  31.8 °C 58.8 °F /  14.9 °C 30.2in /  1021.0hPa Calm   4mph /  6.4km/h 36% 0in /  0.0mm 499 W/m2
16:24 89.1 °F /  31.7 °C 58.6 °F /  14.8 °C 30.2in /  1021.0hPa NE 0.9mph /  1.4km/h 3mph /  4.8km/h 36% 0in /  0.0mm 492 W/m2
16:29 89.2 °F /  31.8 °C 58.8 °F /  14.9 °C 30.1in /  1020.7hPa South 0.9mph /  1.4km/h 4mph /  6.4km/h 36% 0in /  0.0mm 489 W/m2
16:34 89.6 °F /  32 °C 59.2 °F /  15.1 °C 30.1in /  1020.7hPa ESE 2mph /  3.2km/h 3mph /  4.8km/h 36% 0in /  0.0mm 482 W/m2
16:39 89.8 °F /  32.1 °C 60.1 °F /  15.6 °C 30.1in /  1020.7hPa ESE 2mph /  3.2km/h 2mph /  3.2km/h 37% 0in /  0.0mm 464 W/m2
16:44 89.8 °F /  32.1 °C 58.5 °F /  14.7 °C 30.1in /  1020.7hPa East 2mph /  3.2km/h 3mph /  4.8km/h 35% 0in /  0.0mm 464 W/m2
16:49 89.4 °F /  31.9 °C 58.1 °F /  14.5 °C 30.1in /  1020.7hPa East 0.9mph /  1.4km/h 3mph /  4.8km/h 35% 0in /  0.0mm 457 W/m2
16:54 89.4 °F /  31.9 °C 58.1 °F /  14.5 °C 30.1in /  1020.7hPa Calm   2mph /  3.2km/h 35% 0in /  0.0mm 448 W/m2
16:59 89.6 °F /  32 °C 58.3 °F /  14.6 °C 30.1in /  1020.7hPa ENE 0.9mph /  1.4km/h 3mph /  4.8km/h 35% 0in /  0.0mm 436 W/m2
17:04 89.8 °F /  32.1 °C 59.2 °F /  15.1 °C 30.1in /  1020.7hPa East 2.9mph /  4.7km/h 3mph /  4.8km/h 36% 0in /  0.0mm 401 W/m2
17:09 89.8 °F /  32.1 °C 59.2 °F /  15.1 °C 30.1in /  1020.7hPa Calm   1mph /  1.6km/h 36% 0in /  0.0mm 401 W/m2
17:14 89.8 °F /  32.1 °C 57.7 °F /  14.3 °C 30.1in /  1020.3hPa ENE 2mph /  3.2km/h 5mph /  8km/h 34% 0in /  0.0mm 394 W/m2
17:19 90 °F /  32.2 °C 58.6 °F /  14.8 °C 30.1in /  1020.3hPa ENE 0.9mph /  1.4km/h 4mph /  6.4km/h 35% 0in /  0.0mm 371 W/m2
17:24 90 °F /  32.2 °C 58.6 °F /  14.8 °C 30.1in /  1020.3hPa Calm   5mph /  8km/h 35% 0in /  0.0mm 357 W/m2
17:29 89.6 °F /  32 °C 58.3 °F /  14.6 °C 30.1in /  1020.3hPa SE 2.9mph /  4.7km/h 3mph /  4.8km/h 35% 0in /  0.0mm 332 W/m2
17:34 89.4 °F /  31.9 °C 59 °F /  15 °C 30.1in /  1020.0hPa ESE 2mph /  3.2km/h 2mph /  3.2km/h 36% 0in /  0.0mm 330 W/m2
17:39 89.2 °F /  31.8 °C 59.5 °F /  15.3 °C 30.1in /  1020.0hPa NE 0.9mph /  1.4km/h 1mph /  1.6km/h 37% 0in /  0.0mm 285 W/m2
17:44 89.1 °F /  31.7 °C 59.4 °F /  15.2 °C 30.1in /  1020.0hPa SE 0.9mph /  1.4km/h 1mph /  1.6km/h 37% 0in /  0.0mm 278 W/m2
17:49 89.1 °F /  31.7 °C 60.1 °F /  15.6 °C 30.1in /  1020.0hPa Calm     38% 0in /  0.0mm 315 W/m2
17:54 88.9 °F /  31.6 °C 59.2 °F /  15.1 °C 30.1in /  1020.0hPa East 0.9mph /  1.4km/h 2mph /  3.2km/h 37% 0in /  0.0mm 271 W/m2
17:59 88.3 °F /  31.3 °C 59.5 °F /  15.3 °C 30.1in /  1020.0hPa East 0.9mph /  1.4km/h 1mph /  1.6km/h 38% 0in /  0.0mm 190 W/m2
18:04 88.2 °F /  31.2 °C 60.1 °F /  15.6 °C 30.1in /  1020.0hPa Calm   1mph /  1.6km/h 39% 0in /  0.0mm 197 W/m2
18:09 88 °F /  31.1 °C 59.9 °F /  15.5 °C 30.1in /  1020.0hPa Calm     39% 0in /  0.0mm 134 W/m2
18:14 87.3 °F /  30.7 °C 60.6 °F /  15.9 °C 30.1in /  1020.0hPa Calm   1mph /  1.6km/h 41% 0in /  0.0mm 199 W/m2
18:19 86.7 °F /  30.4 °C 60.3 °F /  15.7 °C 30.1in /  1020.0hPa Calm     41% 0in /  0.0mm 128 W/m2
18:24 86.2 °F /  30.1 °C 60.4 °F /  15.8 °C 30.1in /  1020.0hPa SW 0.9mph /  1.4km/h 1mph /  1.6km/h 42% 0in /  0.0mm 83 W/m2
18:29 85.5 °F /  29.7 °C 59.7 °F /  15.4 °C 30.1in /  1020.0hPa SW 2mph /  3.2km/h 2mph /  3.2km/h 42% 0in /  0.0mm 83 W/m2
18:34 84.9 °F /  29.4 °C 60.6 °F /  15.9 °C 30.1in /  1020.0hPa Calm   2mph /  3.2km/h 44% 0in /  0.0mm 79 W/m2
18:39 84.4 °F /  29.1 °C 59.4 °F /  15.2 °C 30.1in /  1019.6hPa Calm     43% 0in /  0.0mm 100 W/m2
18:44 83.7 °F /  28.7 °C 59.4 °F /  15.2 °C 30.1in /  1019.6hPa Calm   1mph /  1.6km/h 44% 0in /  0.0mm 97 W/m2
18:49 83.3 °F /  28.5 °C 59.7 °F /  15.4 °C 30.1in /  1019.6hPa Calm   1mph /  1.6km/h 45% 0in /  0.0mm 109 W/m2
18:54 82.9 °F /  28.3 °C 59.4 °F /  15.2 °C 30.1in /  1019.6hPa SW 0.9mph /  1.4km/h 1mph /  1.6km/h 45% 0in /  0.0mm 83 W/m2
18:59 82.6 °F /  28.1 °C 59 °F /  15 °C 30.1in /  1019.6hPa SW 0.9mph /  1.4km/h 2mph /  3.2km/h 45% 0in /  0.0mm 37 W/m2
19:04 82 °F /  27.8 °C 58.6 °F /  14.8 °C 30.1in /  1019.6hPa Calm   2mph /  3.2km/h 45% 0in /  0.0mm 33 W/m2
19:09 81.3 °F /  27.4 °C 58.6 °F /  14.8 °C 30.1in /  1019.6hPa SW 0.9mph /  1.4km/h 1mph /  1.6km/h 46% 0in /  0.0mm 32 W/m2
19:14 80.8 °F /  27.1 °C 58.6 °F /  14.8 °C 30.1in /  1019.6hPa SW 0.9mph /  1.4km/h 1mph /  1.6km/h 47% 0in /  0.0mm 30 W/m2
19:19 80.2 °F /  26.8 °C 58.1 °F /  14.5 °C 30.1in /  1019.6hPa SW 0.9mph /  1.4km/h 2mph /  3.2km/h 47% 0in /  0.0mm 26 W/m2
19:24 79.5 °F /  26.4 °C 58.1 °F /  14.5 °C 30.1in /  1019.6hPa Calm   1mph /  1.6km/h 48% 0in /  0.0mm 25 W/m2
19:29 79.2 °F /  26.2 °C 58.3 °F /  14.6 °C 30.1in /  1019.6hPa Calm   2mph /  3.2km/h 49% 0in /  0.0mm 25 W/m2
19:34 78.4 °F /  25.8 °C 57.7 °F /  14.3 °C 30.1in /  1019.6hPa Calm   1mph /  1.6km/h 49% 0in /  0.0mm 23 W/m2
19:39 78.3 °F /  25.7 °C 57.6 °F /  14.2 °C 30.1in /  1019.6hPa Calm     49% 0in /  0.0mm 18 W/m2
19:44 77.7 °F /  25.4 °C 57.6 °F /  14.2 °C 30.1in /  1019.6hPa Calm   1mph /  1.6km/h 50% 0in /  0.0mm 12 W/m2
19:49 77.4 °F /  25.2 °C 57.2 °F /  14 °C 30.1in /  1019.6hPa Calm     50% 0in /  0.0mm 7 W/m2
19:54 77 °F /  25 °C 57.6 °F /  14.2 °C 30.1in /  1019.6hPa Calm     51% 0in /  0.0mm 5 W/m2
19:59 76.5 °F /  24.7 °C 57.6 °F /  14.2 °C 30.1in /  1019.6hPa Calm     52% 0in /  0.0mm 0 W/m2
20:04 75.9 °F /  24.4 °C 57.6 °F /  14.2 °C 30.1in /  1019.6hPa Calm     53% 0in /  0.0mm 0 W/m2
20:09 75.7 °F /  24.3 °C 57.4 °F /  14.1 °C 30.1in /  1019.6hPa Calm     53% 0in /  0.0mm 0 W/m2
20:14 75.2 °F /  24 °C 56.8 °F /  13.8 °C 30.1in /  1019.6hPa Calm     53% 0in /  0.0mm 0 W/m2
20:19 74.8 °F /  23.8 °C 57 °F /  13.9 °C 30.1in /  1019.6hPa Calm     54% 0in /  0.0mm 0 W/m2
20:24 74.5 °F /  23.6 °C 56.7 °F /  13.7 °C 30.1in /  1019.6hPa Calm     54% 0in /  0.0mm 0 W/m2
20:29 73.9 °F /  23.3 °C 56.8 °F /  13.8 °C 30.1in /  1019.6hPa Calm     55% 0in /  0.0mm 0 W/m2
20:34 73.8 °F /  23.2 °C 56.7 °F /  13.7 °C 30.1in /  1019.6hPa Calm     55% 0in /  0.0mm 0 W/m2
20:39 73.2 °F /  22.9 °C 56.7 °F /  13.7 °C 30.1in /  1020.0hPa Calm     56% 0in /  0.0mm 0 W/m2
20:44 73 °F /  22.8 °C 56.5 °F /  13.6 °C 30.1in /  1020.0hPa Calm     56% 0in /  0.0mm 0 W/m2
20:49 72.9 °F /  22.7 °C 56.7 °F /  13.7 °C 30.1in /  1020.0hPa Calm     57% 0in /  0.0mm 0 W/m2
20:54 72.7 °F /  22.6 °C 56.5 °F /  13.6 °C 30.1in /  1020.0hPa Calm     57% 0in /  0.0mm 0 W/m2
20:59 72.3 °F /  22.4 °C 56.3 °F /  13.5 °C 30.1in /  1020.0hPa Calm     57% 0in /  0.0mm 0 W/m2
21:04 72.1 °F /  22.3 °C 56.5 °F /  13.6 °C 30.1in /  1020.0hPa Calm     58% 0in /  0.0mm 0 W/m2
21:09 72 °F /  22.2 °C 56.3 °F /  13.5 °C 30.1in /  1020.0hPa Calm     58% 0in /  0.0mm 0 W/m2
21:14 71.4 °F /  21.9 °C 55.9 °F /  13.3 °C 30.1in /  1020.0hPa Calm     58% 0in /  0.0mm 0 W/m2
21:19 71.1 °F /  21.7 °C 55.9 °F /  13.3 °C 30.1in /  1020.0hPa Calm     59% 0in /  0.0mm 0 W/m2
21:24 70.9 °F /  21.6 °C 56.3 °F /  13.5 °C 30.1in /  1020.0hPa Calm     60% 0in /  0.0mm 0 W/m2
21:29 70.5 °F /  21.4 °C 56.5 °F /  13.6 °C 30.1in /  1020.3hPa Calm     61% 0in /  0.0mm 0 W/m2
21:34 70.3 °F /  21.3 °C 56.3 °F /  13.5 °C 30.1in /  1020.3hPa Calm     61% 0in /  0.0mm 0 W/m2
21:39 70 °F /  21.1 °C 56.3 °F /  13.5 °C 30.1in /  1020.3hPa Calm     62% 0in /  0.0mm 0 W/m2
21:44 69.8 °F /  21 °C 56.7 °F /  13.7 °C 30.1in /  1020.3hPa Calm     63% 0in /  0.0mm 0 W/m2
21:49 69.4 °F /  20.8 °C 56.3 °F /  13.5 °C 30.1in /  1020.3hPa Calm     63% 0in /  0.0mm 0 W/m2
21:54 69.3 °F /  20.7 °C 56.1 °F /  13.4 °C 30.1in /  1020.3hPa Calm     63% 0in /  0.0mm 0 W/m2
21:59 69.1 °F /  20.6 °C 56.5 °F /  13.6 °C 30.1in /  1020.3hPa Calm     64% 0in /  0.0mm 0 W/m2
22:04 68.5 °F /  20.3 °C 55.9 °F /  13.3 °C 30.1in /  1020.3hPa Calm     64% 0in /  0.0mm 0 W/m2
22:09 68.5 °F /  20.3 °C 55.9 °F /  13.3 °C 30.1in /  1020.3hPa Calm     64% 0in /  0.0mm 0 W/m2
22:14 68.2 °F /  20.1 °C 55.6 °F /  13.1 °C 30.1in /  1020.3hPa Calm     64% 0in /  0.0mm 0 W/m2
22:19 68 °F /  20 °C 55.4 °F /  13 °C 30.1in /  1020.3hPa Calm     64% 0in /  0.0mm 0 W/m2
22:24 67.8 °F /  19.9 °C 55.6 °F /  13.1 °C 30.1in /  1020.3hPa Calm     65% 0in /  0.0mm 0 W/m2
22:29 67.6 °F /  19.8 °C 55.4 °F /  13 °C 30.1in /  1020.3hPa Calm     65% 0in /  0.0mm 0 W/m2
22:34 67.5 °F /  19.7 °C 55.2 °F /  12.9 °C 30.1in /  1020.3hPa Calm     65% 0in /  0.0mm 0 W/m2
22:39 67.3 °F /  19.6 °C 55 °F /  12.8 °C 30.1in /  1020.3hPa Calm     65% 0in /  0.0mm 0 W/m2
22:44 67.3 °F /  19.6 °C 55 °F /  12.8 °C 30.1in /  1020.3hPa Calm     65% 0in /  0.0mm 0 W/m2
22:49 66.9 °F /  19.4 °C 55.2 °F /  12.9 °C 30.1in /  1020.3hPa Calm     66% 0in /  0.0mm 0 W/m2
22:54 66.7 °F /  19.3 °C 55.4 °F /  13 °C 30.1in /  1020.3hPa Calm     67% 0in /  0.0mm 0 W/m2
22:59 66.6 °F /  19.2 °C 55.2 °F /  12.9 °C 30.1in /  1020.3hPa Calm     67% 0in /  0.0mm 0 W/m2
23:04 66.4 °F /  19.1 °C 55.6 °F /  13.1 °C 30.1in /  1020.3hPa Calm     68% 0in /  0.0mm 0 W/m2
23:09 66 °F /  18.9 °C 55.2 °F /  12.9 °C 30.1in /  1020.3hPa Calm     68% 0in /  0.0mm 0 W/m2
23:14 65.8 °F /  18.8 °C 55.4 °F /  13 °C 30.1in /  1020.3hPa Calm     69% 0in /  0.0mm 0 W/m2
Juneau County Weather
Compliments of Weather Underground - 4 mb